Shafer, Minnesota
Current Conditions -  °F | °C
As of 10:35 PM on Saturday 25 Oct 2014 (Local Time) from KOEO Reporting Station
Clear Clear  
Wind Chill: 44°   Ceiling: Unl
Heat Index: 47°   Visibility: 10mi
Dew Point: 28°   Wind: 6mph
Humidity: 48%   Direction: 290°WNW
Pressure: 30.05"   Gusts: NA
Location:  45.39°N, 92.75°W
Report Text: KOEO 260335Z AUTO 29005KT 10SM CLR 08/M02 A3005 RMK AO2 T00841020
Loading
Personal Weather Stations






























Interactive Weather Map
Tropical Storm Tracking
New forecast layout! Learn more

10-Day Weather Forecast

Advertisements
Track Severe Weather on mobile